sensor_id;sensor_type;location;lat;lon;timestamp;pressure;altitude;pressure_sealevel;temperature;humidity
84647;BME280;74876;52.404;16.896;2024-02-15T00:10:09;100926.0;;;7.18;96.79
84647;BME280;74876;52.404;16.896;2024-02-15T00:25:09;100936.0;;;7.21;96.47
84647;BME280;74876;52.404;16.896;2024-02-15T00:40:09;100928.0;;;7.22;96.31
84647;BME280;74876;52.404;16.896;2024-02-15T00:55:09;100932.0;;;7.33;95.74
84647;BME280;74876;52.404;16.896;2024-02-15T01:10:10;100921.0;;;7.38;95.17
84647;BME280;74876;52.404;16.896;2024-02-15T01:25:10;100920.0;;;7.39;94.95
84647;BME280;74876;52.404;16.896;2024-02-15T01:40:10;100911.0;;;7.46;94.72
84647;BME280;74876;52.404;16.896;2024-02-15T01:55:10;100901.0;;;7.46;94.7
84647;BME280;74876;52.404;16.896;2024-02-15T02:10:10;100895.0;;;7.4;94.62
84647;BME280;74876;52.404;16.896;2024-02-15T02:25:10;100890.0;;;7.43;94.61
84647;BME280;74876;52.404;16.896;2024-02-15T02:40:10;100890.0;;;7.42;94.8
84647;BME280;74876;52.404;16.896;2024-02-15T02:55:09;100881.0;;;7.42;94.73
84647;BME280;74876;52.404;16.896;2024-02-15T03:10:10;100889.0;;;7.49;94.42
84647;BME280;74876;52.404;16.896;2024-02-15T03:25:10;100889.0;;;7.6;93.89
84647;BME280;74876;52.404;16.896;2024-02-15T03:40:09;100892.0;;;7.69;93.39
84647;BME280;74876;52.404;16.896;2024-02-15T03:55:09;100895.0;;;7.67;93.29
84647;BME280;74876;52.404;16.896;2024-02-15T04:10:09;100904.0;;;7.7;93.35
84647;BME280;74876;52.404;16.896;2024-02-15T04:25:09;100895.0;;;7.76;93.32
84647;BME280;74876;52.404;16.896;2024-02-15T04:40:09;100897.0;;;7.74;93.37
84647;BME280;74876;52.404;16.896;2024-02-15T04:55:09;100901.0;;;7.74;93.64
84647;BME280;74876;52.404;16.896;2024-02-15T05:10:09;100906.0;;;7.72;94.17
84647;BME280;74876;52.404;16.896;2024-02-15T05:25:09;100907.0;;;7.72;94.27
84647;BME280;74876;52.404;16.896;2024-02-15T05:40:09;100907.0;;;7.71;94.23
84647;BME280;74876;52.404;16.896;2024-02-15T05:55:09;100905.0;;;7.81;94.14
84647;BME280;74876;52.404;16.896;2024-02-15T06:10:09;100909.0;;;7.85;94.08
84647;BME280;74876;52.404;16.896;2024-02-15T06:25:09;100923.0;;;8.01;93.63
84647;BME280;74876;52.404;16.896;2024-02-15T06:40:09;100937.0;;;8.04;93.25
84647;BME280;74876;52.404;16.896;2024-02-15T06:55:09;100935.0;;;8.05;93.12
84647;BME280;74876;52.404;16.896;2024-02-15T07:10:09;100932.0;;;8.16;93.13
84647;BME280;74876;52.404;16.896;2024-02-15T07:25:09;100937.0;;;8.22;92.85
84647;BME280;74876;52.404;16.896;2024-02-15T07:40:09;100950.0;;;8.36;92.7
84647;BME280;74876;52.404;16.896;2024-02-15T07:55:09;100956.0;;;8.51;92.41
84647;BME280;74876;52.404;16.896;2024-02-15T08:10:09;100957.0;;;8.68;92.17
84647;BME280;74876;52.404;16.896;2024-02-15T08:30:09;100957.0;;;8.92;91.17
84647;BME280;74876;52.404;16.896;2024-02-15T08:45:09;100964.0;;;9.15;90.38
84647;BME280;74876;52.404;16.896;2024-02-15T09:00:09;100961.0;;;9.32;89.74
84647;BME280;74876;52.404;16.896;2024-02-15T09:15:09;100958.0;;;9.68;88.96
84647;BME280;74876;52.404;16.896;2024-02-15T09:30:09;100965.0;;;9.76;88.5
84647;BME280;74876;52.404;16.896;2024-02-15T09:45:09;100975.0;;;9.83;89.33
84647;BME280;74876;52.404;16.896;2024-02-15T10:15:09;100969.0;;;9.93;89.98
84647;BME280;74876;52.404;16.896;2024-02-15T10:30:09;100959.0;;;10.26;89.2
84647;BME280;74876;52.404;16.896;2024-02-15T10:45:10;100963.0;;;10.48;89.03
84647;BME280;74876;52.404;16.896;2024-02-15T11:00:09;100966.0;;;10.41;88.94
84647;BME280;74876;52.404;16.896;2024-02-15T11:15:09;100954.0;;;10.69;88.57
84647;BME280;74876;52.404;16.896;2024-02-15T11:30:10;100948.0;;;10.79;87.98
84647;BME280;74876;52.404;16.896;2024-02-15T11:45:10;100931.0;;;10.84;88.39
84647;BME280;74876;52.404;16.896;2024-02-15T12:05:09;100915.0;;;11.09;87.73
84647;BME280;74876;52.404;16.896;2024-02-15T12:20:09;100919.0;;;10.97;88.06
84647;BME280;74876;52.404;16.896;2024-02-15T12:35:09;100917.0;;;10.83;89.16
84647;BME280;74876;52.404;16.896;2024-02-15T12:50:09;100913.0;;;10.85;89.75
84647;BME280;74876;52.404;16.896;2024-02-15T13:05:09;100911.0;;;10.8;90.35
84647;BME280;74876;52.404;16.896;2024-02-15T13:20:09;100905.0;;;10.79;90.63
84647;BME280;74876;52.404;16.896;2024-02-15T13:35:09;100908.0;;;10.85;91.1
84647;BME280;74876;52.404;16.896;2024-02-15T13:50:09;100907.0;;;10.74;92.27
84647;BME280;74876;52.404;16.896;2024-02-15T14:05:09;100901.0;;;10.7;93.25
84647;BME280;74876;52.404;16.896;2024-02-15T14:20:09;100908.0;;;10.63;94.74
84647;BME280;74876;52.404;16.896;2024-02-15T14:35:09;100912.0;;;10.62;94.93
84647;BME280;74876;52.404;16.896;2024-02-15T14:50:09;100921.0;;;10.67;94.47
84647;BME280;74876;52.404;16.896;2024-02-15T15:05:10;100936.0;;;10.66;94.42
84647;BME280;74876;52.404;16.896;2024-02-15T15:25:09;100930.0;;;10.59;96.13
84647;BME280;74876;52.404;16.896;2024-02-15T15:40:09;100934.0;;;10.49;96.85
84647;BME280;74876;52.404;16.896;2024-02-15T15:55:09;100925.0;;;10.53;96.6
84647;BME280;74876;52.404;16.896;2024-02-15T16:10:09;100922.0;;;10.49;96.2
84647;BME280;74876;52.404;16.896;2024-02-15T16:25:09;100920.0;;;10.47;96.17
84647;BME280;74876;52.404;16.896;2024-02-15T16:45:09;100947.0;;;10.46;96.07
84647;BME280;74876;52.404;16.896;2024-02-15T17:00:10;100956.0;;;10.41;96.39
84647;BME280;74876;52.404;16.896;2024-02-15T17:15:10;100959.0;;;10.37;96.72
84647;BME280;74876;52.404;16.896;2024-02-15T17:30:10;100959.0;;;10.39;96.4
84647;BME280;74876;52.404;16.896;2024-02-15T17:45:10;100964.0;;;10.25;96.47
84647;BME280;74876;52.404;16.896;2024-02-15T18:00:10;100960.0;;;10.23;96.52
84647;BME280;74876;52.404;16.896;2024-02-15T18:15:10;100957.0;;;10.13;96.56
84647;BME280;74876;52.404;16.896;2024-02-15T18:40:10;100953.0;;;9.98;96.57
84647;BME280;74876;52.404;16.896;2024-02-15T19:00:09;100941.0;;;9.86;96.37
84647;BME280;74876;52.404;16.896;2024-02-15T19:15:09;100943.0;;;9.83;96.15
84647;BME280;74876;52.404;16.896;2024-02-15T19:30:09;100939.0;;;9.92;95.95
84647;BME280;74876;52.404;16.896;2024-02-15T19:45:09;100935.0;;;9.94;95.62
84647;BME280;74876;52.404;16.896;2024-02-15T20:00:09;100928.0;;;9.93;95.38
84647;BME280;74876;52.404;16.896;2024-02-15T20:15:09;100940.0;;;9.88;95.45
84647;BME280;74876;52.404;16.896;2024-02-15T20:30:09;100935.0;;;9.9;95.32
84647;BME280;74876;52.404;16.896;2024-02-15T20:45:09;100930.0;;;9.87;95.14
84647;BME280;74876;52.404;16.896;2024-02-15T21:00:09;100932.0;;;9.87;95.0
84647;BME280;74876;52.404;16.896;2024-02-15T21:15:09;100920.0;;;9.81;95.07
84647;BME280;74876;52.404;16.896;2024-02-15T21:30:09;100928.0;;;9.72;95.26
84647;BME280;74876;52.404;16.896;2024-02-15T21:45:09;100924.0;;;9.64;95.41
84647;BME280;74876;52.404;16.896;2024-02-15T22:10:09;100904.0;;;9.58;95.26
84647;BME280;74876;52.404;16.896;2024-02-15T22:25:09;100910.0;;;9.65;95.01
84647;BME280;74876;52.404;16.896;2024-02-15T22:40:09;100907.0;;;9.65;94.82
84647;BME280;74876;52.404;16.896;2024-02-15T22:55:09;100907.0;;;9.65;94.38
84647;BME280;74876;52.404;16.896;2024-02-15T23:10:09;100904.0;;;9.61;93.81
84647;BME280;74876;52.404;16.896;2024-02-15T23:30:10;100897.0;;;9.58;93.22
84647;BME280;74876;52.404;16.896;2024-02-15T23:45:09;100906.0;;;9.53;92.85
